sensor_id;sensor_type;location;lat;lon;timestamp;P1;durP1;ratioP1;P2;durP2;ratioP2
18425;SDS011;9340;48.756;9.226;2023-05-20T00:00:00;4.70;;;4.30;;
18425;SDS011;9340;48.756;9.226;2023-05-20T00:02:26;5.27;;;4.80;;
18425;SDS011;9340;48.756;9.226;2023-05-20T00:04:53;4.87;;;4.47;;
18425;SDS011;9340;48.756;9.226;2023-05-20T00:07:19;5.60;;;4.57;;
18425;SDS011;9340;48.756;9.226;2023-05-20T00:09:46;5.83;;;4.77;;
18425;SDS011;9340;48.756;9.226;2023-05-20T00:12:13;5.13;;;4.57;;
18425;SDS011;9340;48.756;9.226;2023-05-20T00:14:39;5.90;;;4.50;;
18425;SDS011;9340;48.756;9.226;2023-05-20T00:17:07;5.13;;;4.27;;
18425;SDS011;9340;48.756;9.226;2023-05-20T00:19:34;4.30;;;3.90;;
18425;SDS011;9340;48.756;9.226;2023-05-20T00:22:01;4.90;;;4.50;;
18425;SDS011;9340;48.756;9.226;2023-05-20T00:24:28;8.13;;;4.77;;
18425;SDS011;9340;48.756;9.226;2023-05-20T00:26:54;5.37;;;4.50;;
18425;SDS011;9340;48.756;9.226;2023-05-20T00:29:21;6.57;;;4.70;;
18425;SDS011;9340;48.756;9.226;2023-05-20T00:31:47;4.60;;;4.20;;
18425;SDS011;9340;48.756;9.226;2023-05-20T00:34:15;5.60;;;4.60;;
18425;SDS011;9340;48.756;9.226;2023-05-20T00:36:42;4.63;;;4.23;;
18425;SDS011;9340;48.756;9.226;2023-05-20T00:39:09;5.17;;;4.17;;
18425;SDS011;9340;48.756;9.226;2023-05-20T00:41:36;5.10;;;4.17;;
18425;SDS011;9340;48.756;9.226;2023-05-20T00:44:03;4.83;;;4.33;;
18425;SDS011;9340;48.756;9.226;2023-05-20T00:46:30;5.10;;;4.23;;
18425;SDS011;9340;48.756;9.226;2023-05-20T00:48:56;4.80;;;4.23;;
18425;SDS011;9340;48.756;9.226;2023-05-20T00:51:25;4.80;;;4.30;;
18425;SDS011;9340;48.756;9.226;2023-05-20T00:53:51;5.40;;;4.90;;
18425;SDS011;9340;48.756;9.226;2023-05-20T00:56:19;5.10;;;4.60;;
18425;SDS011;9340;48.756;9.226;2023-05-20T00:58:46;4.90;;;4.13;;
18425;SDS011;9340;48.756;9.226;2023-05-20T01:01:14;5.93;;;4.50;;
18425;SDS011;9340;48.756;9.226;2023-05-20T01:03:40;6.43;;;4.50;;
18425;SDS011;9340;48.756;9.226;2023-05-20T01:06:07;5.00;;;4.50;;
18425;SDS011;9340;48.756;9.226;2023-05-20T01:08:35;4.93;;;4.40;;
18425;SDS011;9340;48.756;9.226;2023-05-20T01:11:03;5.23;;;4.73;;
18425;SDS011;9340;48.756;9.226;2023-05-20T01:13:33;5.40;;;4.90;;
18425;SDS011;9340;48.756;9.226;2023-05-20T01:16:05;5.60;;;4.80;;
18425;SDS011;9340;48.756;9.226;2023-05-20T01:18:33;4.67;;;4.20;;
18425;SDS011;9340;48.756;9.226;2023-05-20T01:21:01;5.40;;;4.77;;
18425;SDS011;9340;48.756;9.226;2023-05-20T01:23:36;5.93;;;5.00;;
18425;SDS011;9340;48.756;9.226;2023-05-20T01:26:05;5.60;;;5.07;;
18425;SDS011;9340;48.756;9.226;2023-05-20T01:28:32;5.43;;;4.93;;
18425;SDS011;9340;48.756;9.226;2023-05-20T01:30:59;5.10;;;4.70;;
18425;SDS011;9340;48.756;9.226;2023-05-20T01:33:28;5.87;;;5.07;;
18425;SDS011;9340;48.756;9.226;2023-05-20T01:36:02;5.50;;;5.07;;
18425;SDS011;9340;48.756;9.226;2023-05-20T01:38:29;6.67;;;5.10;;
18425;SDS011;9340;48.756;9.226;2023-05-20T01:40:57;6.43;;;5.13;;
18425;SDS011;9340;48.756;9.226;2023-05-20T01:43:25;5.23;;;4.73;;
18425;SDS011;9340;48.756;9.226;2023-05-20T01:45:53;6.60;;;5.13;;
18425;SDS011;9340;48.756;9.226;2023-05-20T01:48:19;5.30;;;4.80;;
18425;SDS011;9340;48.756;9.226;2023-05-20T01:50:46;5.43;;;5.03;;
18425;SDS011;9340;48.756;9.226;2023-05-20T01:53:13;5.63;;;5.13;;
18425;SDS011;9340;48.756;9.226;2023-05-20T01:55:39;5.27;;;4.63;;
18425;SDS011;9340;48.756;9.226;2023-05-20T01:58:07;6.07;;;5.30;;
18425;SDS011;9340;48.756;9.226;2023-05-20T02:00:34;6.20;;;5.57;;
18425;SDS011;9340;48.756;9.226;2023-05-20T02:03:01;6.43;;;5.17;;
18425;SDS011;9340;48.756;9.226;2023-05-20T02:05:28;5.90;;;5.40;;
18425;SDS011;9340;48.756;9.226;2023-05-20T02:07:54;6.03;;;5.43;;
18425;SDS011;9340;48.756;9.226;2023-05-20T02:10:21;6.87;;;5.70;;
18425;SDS011;9340;48.756;9.226;2023-05-20T02:12:48;6.13;;;5.50;;
18425;SDS011;9340;48.756;9.226;2023-05-20T02:15:16;6.87;;;6.17;;
18425;SDS011;9340;48.756;9.226;2023-05-20T02:17:42;6.57;;;5.93;;
18425;SDS011;9340;48.756;9.226;2023-05-20T02:20:09;6.83;;;5.17;;
18425;SDS011;9340;48.756;9.226;2023-05-20T02:22:37;5.57;;;5.07;;
18425;SDS011;9340;48.756;9.226;2023-05-20T02:25:04;5.33;;;4.93;;
18425;SDS011;9340;48.756;9.226;2023-05-20T02:27:32;5.53;;;5.03;;
18425;SDS011;9340;48.756;9.226;2023-05-20T02:29:59;5.23;;;4.83;;
18425;SDS011;9340;48.756;9.226;2023-05-20T02:32:27;6.20;;;5.60;;
18425;SDS011;9340;48.756;9.226;2023-05-20T02:34:54;5.97;;;5.20;;
18425;SDS011;9340;48.756;9.226;2023-05-20T02:37:20;6.63;;;5.73;;
18425;SDS011;9340;48.756;9.226;2023-05-20T02:39:47;6.97;;;6.20;;
18425;SDS011;9340;48.756;9.226;2023-05-20T02:42:14;6.30;;;5.80;;
18425;SDS011;9340;48.756;9.226;2023-05-20T02:44:40;7.13;;;5.63;;
18425;SDS011;9340;48.756;9.226;2023-05-20T02:47:07;6.23;;;5.73;;
18425;SDS011;9340;48.756;9.226;2023-05-20T02:49:35;6.67;;;5.93;;
18425;SDS011;9340;48.756;9.226;2023-05-20T02:52:02;6.30;;;5.77;;
18425;SDS011;9340;48.756;9.226;2023-05-20T02:54:29;6.40;;;5.70;;
18425;SDS011;9340;48.756;9.226;2023-05-20T02:56:55;6.00;;;5.27;;
18425;SDS011;9340;48.756;9.226;2023-05-20T02:59:22;6.57;;;5.97;;
18425;SDS011;9340;48.756;9.226;2023-05-20T03:01:49;6.23;;;5.63;;
18425;SDS011;9340;48.756;9.226;2023-05-20T03:04:15;5.87;;;5.33;;
18425;SDS011;9340;48.756;9.226;2023-05-20T03:06:46;6.40;;;5.90;;
18425;SDS011;9340;48.756;9.226;2023-05-20T03:09:16;6.20;;;5.60;;
18425;SDS011;9340;48.756;9.226;2023-05-20T03:11:43;6.03;;;5.50;;
18425;SDS011;9340;48.756;9.226;2023-05-20T03:14:10;5.83;;;5.23;;
18425;SDS011;9340;48.756;9.226;2023-05-20T03:16:36;6.07;;;5.57;;
18425;SDS011;9340;48.756;9.226;2023-05-20T03:19:03;6.40;;;5.80;;
18425;SDS011;9340;48.756;9.226;2023-05-20T03:21:30;6.40;;;5.90;;
18425;SDS011;9340;48.756;9.226;2023-05-20T03:23:59;5.90;;;5.40;;
18425;SDS011;9340;48.756;9.226;2023-05-20T03:26:26;6.50;;;5.90;;
18425;SDS011;9340;48.756;9.226;2023-05-20T03:28:52;6.40;;;5.80;;
18425;SDS011;9340;48.756;9.226;2023-05-20T03:31:19;7.37;;;5.33;;
18425;SDS011;9340;48.756;9.226;2023-05-20T03:33:46;6.73;;;6.13;;
18425;SDS011;9340;48.756;9.226;2023-05-20T03:36:12;7.63;;;6.83;;
18425;SDS011;9340;48.756;9.226;2023-05-20T03:38:39;6.70;;;6.10;;
18425;SDS011;9340;48.756;9.226;2023-05-20T03:41:07;6.60;;;6.03;;
18425;SDS011;9340;48.756;9.226;2023-05-20T03:43:34;8.03;;;6.40;;
18425;SDS011;9340;48.756;9.226;2023-05-20T03:46:00;7.50;;;6.80;;
18425;SDS011;9340;48.756;9.226;2023-05-20T03:48:27;6.37;;;5.87;;
18425;SDS011;9340;48.756;9.226;2023-05-20T03:50:53;7.40;;;6.33;;
18425;SDS011;9340;48.756;9.226;2023-05-20T03:53:20;6.73;;;6.23;;
18425;SDS011;9340;48.756;9.226;2023-05-20T03:55:47;6.50;;;5.90;;
18425;SDS011;9340;48.756;9.226;2023-05-20T03:58:15;6.00;;;5.20;;
18425;SDS011;9340;48.756;9.226;2023-05-20T04:00:41;6.00;;;5.50;;
18425;SDS011;9340;48.756;9.226;2023-05-20T04:03:08;5.30;;;4.80;;
18425;SDS011;9340;48.756;9.226;2023-05-20T04:05:35;5.77;;;5.27;;
18425;SDS011;9340;48.756;9.226;2023-05-20T04:08:02;6.07;;;5.47;;
18425;SDS011;9340;48.756;9.226;2023-05-20T04:10:29;6.30;;;5.70;;
18425;SDS011;9340;48.756;9.226;2023-05-20T04:12:57;5.97;;;5.47;;
18425;SDS011;9340;48.756;9.226;2023-05-20T04:15:25;6.00;;;5.47;;
18425;SDS011;9340;48.756;9.226;2023-05-20T04:17:53;5.60;;;5.10;;
18425;SDS011;9340;48.756;9.226;2023-05-20T04:20:20;5.43;;;5.03;;
18425;SDS011;9340;48.756;9.226;2023-05-20T04:22:48;6.73;;;6.13;;
18425;SDS011;9340;48.756;9.226;2023-05-20T04:25:14;5.50;;;5.00;;
18425;SDS011;9340;48.756;9.226;2023-05-20T04:27:41;5.50;;;4.87;;
18425;SDS011;9340;48.756;9.226;2023-05-20T04:30:09;6.50;;;5.27;;
18425;SDS011;9340;48.756;9.226;2023-05-20T04:32:37;5.87;;;5.30;;
18425;SDS011;9340;48.756;9.226;2023-05-20T04:35:05;5.27;;;4.87;;
18425;SDS011;9340;48.756;9.226;2023-05-20T04:37:35;5.00;;;4.60;;
18425;SDS011;9340;48.756;9.226;2023-05-20T04:40:02;5.87;;;5.37;;
18425;SDS011;9340;48.756;9.226;2023-05-20T04:42:30;5.10;;;4.70;;
18425;SDS011;9340;48.756;9.226;2023-05-20T04:44:57;5.47;;;4.50;;
18425;SDS011;9340;48.756;9.226;2023-05-20T04:47:26;5.20;;;4.80;;
18425;SDS011;9340;48.756;9.226;2023-05-20T04:49:54;5.20;;;4.80;;
18425;SDS011;9340;48.756;9.226;2023-05-20T04:52:21;6.07;;;5.30;;
18425;SDS011;9340;48.756;9.226;2023-05-20T04:54:50;6.00;;;4.63;;
18425;SDS011;9340;48.756;9.226;2023-05-20T04:57:17;5.53;;;5.03;;
18425;SDS011;9340;48.756;9.226;2023-05-20T04:59:45;5.20;;;4.70;;
18425;SDS011;9340;48.756;9.226;2023-05-20T05:02:11;5.20;;;4.77;;
18425;SDS011;9340;48.756;9.226;2023-05-20T05:04:38;5.17;;;4.67;;
18425;SDS011;9340;48.756;9.226;2023-05-20T05:07:06;5.07;;;4.67;;
18425;SDS011;9340;48.756;9.226;2023-05-20T05:09:33;5.80;;;5.20;;
18425;SDS011;9340;48.756;9.226;2023-05-20T05:12:00;5.27;;;4.80;;
18425;SDS011;9340;48.756;9.226;2023-05-20T05:14:26;4.73;;;4.23;;
18425;SDS011;9340;48.756;9.226;2023-05-20T05:16:53;4.90;;;4.50;;
18425;SDS011;9340;48.756;9.226;2023-05-20T05:19:20;5.50;;;5.00;;
18425;SDS011;9340;48.756;9.226;2023-05-20T05:21:47;5.30;;;4.90;;
18425;SDS011;9340;48.756;9.226;2023-05-20T05:24:15;5.60;;;5.00;;
18425;SDS011;9340;48.756;9.226;2023-05-20T05:26:42;5.60;;;5.10;;
18425;SDS011;9340;48.756;9.226;2023-05-20T05:29:09;5.87;;;5.33;;
18425;SDS011;9340;48.756;9.226;2023-05-20T05:31:36;5.17;;;4.50;;
18425;SDS011;9340;48.756;9.226;2023-05-20T05:34:03;5.30;;;4.90;;
18425;SDS011;9340;48.756;9.226;2023-05-20T05:36:31;5.80;;;5.30;;
18425;SDS011;9340;48.756;9.226;2023-05-20T05:38:58;5.90;;;5.33;;
18425;SDS011;9340;48.756;9.226;2023-05-20T05:41:26;5.60;;;5.20;;
18425;SDS011;9340;48.756;9.226;2023-05-20T05:43:53;5.00;;;4.60;;
18425;SDS011;9340;48.756;9.226;2023-05-20T05:46:20;5.33;;;4.83;;
18425;SDS011;9340;48.756;9.226;2023-05-20T05:48:46;5.33;;;4.83;;
18425;SDS011;9340;48.756;9.226;2023-05-20T05:51:14;5.60;;;5.10;;
18425;SDS011;9340;48.756;9.226;2023-05-20T05:53:42;5.55;;;5.13;;
18425;SDS011;9340;48.756;9.226;2023-05-20T05:56:08;5.10;;;4.70;;
18425;SDS011;9340;48.756;9.226;2023-05-20T05:58:36;7.10;;;5.78;;
18425;SDS011;9340;48.756;9.226;2023-05-20T06:01:03;5.20;;;4.80;;
18425;SDS011;9340;48.756;9.226;2023-05-20T06:03:30;5.07;;;4.63;;
18425;SDS011;9340;48.756;9.226;2023-05-20T06:05:57;5.28;;;4.88;;
18425;SDS011;9340;48.756;9.226;2023-05-20T06:08:24;5.57;;;4.93;;
18425;SDS011;9340;48.756;9.226;2023-05-20T06:10:51;5.68;;;5.18;;
18425;SDS011;9340;48.756;9.226;2023-05-20T06:13:18;5.68;;;5.20;;
18425;SDS011;9340;48.756;9.226;2023-05-20T06:15:47;5.30;;;4.90;;
18425;SDS011;9340;48.756;9.226;2023-05-20T06:18:14;5.97;;;5.47;;
18425;SDS011;9340;48.756;9.226;2023-05-20T06:20:41;6.85;;;6.22;;
18425;SDS011;9340;48.756;9.226;2023-05-20T06:23:08;5.65;;;5.15;;
18425;SDS011;9340;48.756;9.226;2023-05-20T06:25:34;6.32;;;5.82;;
18425;SDS011;9340;48.756;9.226;2023-05-20T06:28:01;5.30;;;4.90;;
18425;SDS011;9340;48.756;9.226;2023-05-20T06:30:28;5.93;;;5.32;;
18425;SDS011;9340;48.756;9.226;2023-05-20T06:32:56;5.50;;;5.00;;
18425;SDS011;9340;48.756;9.226;2023-05-20T06:35:23;6.43;;;5.93;;
18425;SDS011;9340;48.756;9.226;2023-05-20T06:37:49;5.57;;;5.07;;
18425;SDS011;9340;48.756;9.226;2023-05-20T06:40:16;5.68;;;5.25;;
18425;SDS011;9340;48.756;9.226;2023-05-20T06:42:43;6.60;;;6.00;;
18425;SDS011;9340;48.756;9.226;2023-05-20T06:45:10;6.30;;;5.80;;
18425;SDS011;9340;48.756;9.226;2023-05-20T06:47:37;6.03;;;5.50;;
18425;SDS011;9340;48.756;9.226;2023-05-20T06:50:06;6.82;;;6.18;;
18425;SDS011;9340;48.756;9.226;2023-05-20T06:52:33;7.18;;;6.47;;
18425;SDS011;9340;48.756;9.226;2023-05-20T06:54:59;6.55;;;6.05;;
18425;SDS011;9340;48.756;9.226;2023-05-20T06:57:26;5.80;;;5.30;;
18425;SDS011;9340;48.756;9.226;2023-05-20T06:59:53;7.15;;;6.65;;
18425;SDS011;9340;48.756;9.226;2023-05-20T07:02:19;7.13;;;6.40;;
18425;SDS011;9340;48.756;9.226;2023-05-20T07:04:46;6.97;;;6.47;;
18425;SDS011;9340;48.756;9.226;2023-05-20T07:07:14;7.13;;;6.53;;
18425;SDS011;9340;48.756;9.226;2023-05-20T07:09:42;6.43;;;5.93;;
18425;SDS011;9340;48.756;9.226;2023-05-20T07:12:08;6.28;;;5.78;;
18425;SDS011;9340;48.756;9.226;2023-05-20T07:14:35;6.15;;;5.55;;
18425;SDS011;9340;48.756;9.226;2023-05-20T07:17:02;7.22;;;6.63;;
18425;SDS011;9340;48.756;9.226;2023-05-20T07:19:30;7.18;;;6.57;;
18425;SDS011;9340;48.756;9.226;2023-05-20T07:21:57;7.38;;;6.78;;
18425;SDS011;9340;48.756;9.226;2023-05-20T07:24:25;7.85;;;7.20;;
18425;SDS011;9340;48.756;9.226;2023-05-20T07:26:52;6.55;;;5.95;;
18425;SDS011;9340;48.756;9.226;2023-05-20T07:29:19;7.40;;;6.75;;
18425;SDS011;9340;48.756;9.226;2023-05-20T07:31:45;7.20;;;6.60;;
18425;SDS011;9340;48.756;9.226;2023-05-20T07:34:12;7.32;;;6.72;;
18425;SDS011;9340;48.756;9.226;2023-05-20T07:36:39;7.03;;;6.32;;
18425;SDS011;9340;48.756;9.226;2023-05-20T07:39:05;6.57;;;6.03;;
18425;SDS011;9340;48.756;9.226;2023-05-20T07:41:34;6.50;;;5.95;;
18425;SDS011;9340;48.756;9.226;2023-05-20T07:44:01;6.32;;;5.80;;
18425;SDS011;9340;48.756;9.226;2023-05-20T07:46:29;6.68;;;6.18;;
18425;SDS011;9340;48.756;9.226;2023-05-20T07:48:56;6.72;;;6.10;;
18425;SDS011;9340;48.756;9.226;2023-05-20T07:51:22;7.10;;;6.55;;
18425;SDS011;9340;48.756;9.226;2023-05-20T07:53:49;6.70;;;5.90;;
18425;SDS011;9340;48.756;9.226;2023-05-20T07:56:16;6.80;;;6.20;;
18425;SDS011;9340;48.756;9.226;2023-05-20T07:58:50;15.18;;;9.65;;
18425;SDS011;9340;48.756;9.226;2023-05-20T08:01:17;7.38;;;6.68;;
18425;SDS011;9340;48.756;9.226;2023-05-20T08:03:44;11.05;;;8.30;;
18425;SDS011;9340;48.756;9.226;2023-05-20T08:06:11;8.98;;;7.35;;
18425;SDS011;9340;48.756;9.226;2023-05-20T08:08:38;6.30;;;5.80;;
18425;SDS011;9340;48.756;9.226;2023-05-20T08:11:05;7.22;;;6.60;;
18425;SDS011;9340;48.756;9.226;2023-05-20T08:13:32;6.07;;;5.57;;
18425;SDS011;9340;48.756;9.226;2023-05-20T08:16:00;6.60;;;6.03;;
18425;SDS011;9340;48.756;9.226;2023-05-20T08:18:27;6.43;;;5.93;;
18425;SDS011;9340;48.756;9.226;2023-05-20T08:20:54;6.55;;;6.05;;
18425;SDS011;9340;48.756;9.226;2023-05-20T08:23:21;6.45;;;5.85;;
18425;SDS011;9340;48.756;9.226;2023-05-20T08:25:48;6.72;;;5.80;;
18425;SDS011;9340;48.756;9.226;2023-05-20T08:28:15;6.28;;;5.85;;
18425;SDS011;9340;48.756;9.226;2023-05-20T08:30:41;5.82;;;5.32;;
18425;SDS011;9340;48.756;9.226;2023-05-20T08:33:09;6.68;;;6.15;;
18425;SDS011;9340;48.756;9.226;2023-05-20T08:35:37;6.85;;;6.25;;
18425;SDS011;9340;48.756;9.226;2023-05-20T08:38:04;6.35;;;5.85;;
18425;SDS011;9340;48.756;9.226;2023-05-20T08:40:33;6.32;;;5.80;;
18425;SDS011;9340;48.756;9.226;2023-05-20T08:43:00;6.15;;;5.60;;
18425;SDS011;9340;48.756;9.226;2023-05-20T08:45:27;6.30;;;5.80;;
18425;SDS011;9340;48.756;9.226;2023-05-20T08:47:57;6.00;;;5.30;;
18425;SDS011;9340;48.756;9.226;2023-05-20T08:50:25;5.95;;;5.45;;
18425;SDS011;9340;48.756;9.226;2023-05-20T08:52:52;6.22;;;5.63;;
18425;SDS011;9340;48.756;9.226;2023-05-20T08:55:24;7.70;;;6.40;;
18425;SDS011;9340;48.756;9.226;2023-05-20T08:57:53;22.27;;;9.50;;
18425;SDS011;9340;48.756;9.226;2023-05-20T09:00:21;6.70;;;6.10;;
18425;SDS011;9340;48.756;9.226;2023-05-20T09:02:51;7.72;;;7.03;;
18425;SDS011;9340;48.756;9.226;2023-05-20T09:05:18;7.30;;;6.60;;
18425;SDS011;9340;48.756;9.226;2023-05-20T09:07:47;6.30;;;5.72;;
18425;SDS011;9340;48.756;9.226;2023-05-20T09:10:14;6.32;;;5.78;;
18425;SDS011;9340;48.756;9.226;2023-05-20T09:12:41;6.22;;;5.72;;
18425;SDS011;9340;48.756;9.226;2023-05-20T09:15:08;6.07;;;5.63;;
18425;SDS011;9340;48.756;9.226;2023-05-20T09:17:35;6.80;;;6.30;;
18425;SDS011;9340;48.756;9.226;2023-05-20T09:20:04;6.57;;;6.03;;
18425;SDS011;9340;48.756;9.226;2023-05-20T09:22:33;6.93;;;6.40;;
18425;SDS011;9340;48.756;9.226;2023-05-20T09:25:01;6.07;;;5.47;;
18425;SDS011;9340;48.756;9.226;2023-05-20T09:27:28;7.28;;;6.57;;
18425;SDS011;9340;48.756;9.226;2023-05-20T09:29:55;6.40;;;5.90;;
18425;SDS011;9340;48.756;9.226;2023-05-20T09:32:21;7.55;;;6.88;;
18425;SDS011;9340;48.756;9.226;2023-05-20T09:34:51;7.13;;;5.93;;
18425;SDS011;9340;48.756;9.226;2023-05-20T09:37:19;6.88;;;6.32;;
18425;SDS011;9340;48.756;9.226;2023-05-20T09:39:48;6.80;;;6.25;;
18425;SDS011;9340;48.756;9.226;2023-05-20T09:42:24;7.13;;;6.50;;
18425;SDS011;9340;48.756;9.226;2023-05-20T09:44:53;6.10;;;5.55;;
18425;SDS011;9340;48.756;9.226;2023-05-20T09:47:22;6.05;;;5.65;;
18425;SDS011;9340;48.756;9.226;2023-05-20T09:49:49;5.95;;;5.35;;
18425;SDS011;9340;48.756;9.226;2023-05-20T09:52:17;6.65;;;6.05;;
18425;SDS011;9340;48.756;9.226;2023-05-20T09:54:44;6.15;;;5.75;;
18425;SDS011;9340;48.756;9.226;2023-05-20T09:57:11;6.57;;;6.05;;
18425;SDS011;9340;48.756;9.226;2023-05-20T09:59:39;7.07;;;6.55;;
18425;SDS011;9340;48.756;9.226;2023-05-20T10:02:06;7.32;;;6.72;;
18425;SDS011;9340;48.756;9.226;2023-05-20T10:04:34;7.25;;;6.55;;
18425;SDS011;9340;48.756;9.226;2023-05-20T10:07:06;6.88;;;6.30;;
18425;SDS011;9340;48.756;9.226;2023-05-20T10:09:46;6.45;;;5.95;;
18425;SDS011;9340;48.756;9.226;2023-05-20T10:12:22;6.45;;;5.95;;
18425;SDS011;9340;48.756;9.226;2023-05-20T10:15:02;7.15;;;6.55;;
18425;SDS011;9340;48.756;9.226;2023-05-20T10:17:38;6.93;;;6.32;;
18425;SDS011;9340;48.756;9.226;2023-05-20T10:20:09;7.30;;;6.70;;
18425;SDS011;9340;48.756;9.226;2023-05-20T10:22:37;6.88;;;6.38;;
18425;SDS011;9340;48.756;9.226;2023-05-20T10:25:04;7.05;;;6.45;;
18425;SDS011;9340;48.756;9.226;2023-05-20T10:27:41;7.28;;;6.70;;
18425;SDS011;9340;48.756;9.226;2023-05-20T10:30:15;6.63;;;6.13;;
18425;SDS011;9340;48.756;9.226;2023-05-20T10:32:47;7.10;;;6.30;;
18425;SDS011;9340;48.756;9.226;2023-05-20T10:35:20;8.57;;;7.55;;
18425;SDS011;9340;48.756;9.226;2023-05-20T10:37:47;6.80;;;6.20;;
18425;SDS011;9340;48.756;9.226;2023-05-20T10:40:14;6.57;;;5.93;;
18425;SDS011;9340;48.756;9.226;2023-05-20T10:42:43;7.60;;;7.00;;
18425;SDS011;9340;48.756;9.226;2023-05-20T10:45:10;6.32;;;5.88;;
18425;SDS011;9340;48.756;9.226;2023-05-20T10:47:52;5.80;;;5.35;;
18425;SDS011;9340;48.756;9.226;2023-05-20T10:50:27;6.70;;;6.10;;
18425;SDS011;9340;48.756;9.226;2023-05-20T10:53:01;7.25;;;6.65;;
18425;SDS011;9340;48.756;9.226;2023-05-20T10:55:34;6.30;;;5.75;;
18425;SDS011;9340;48.756;9.226;2023-05-20T10:58:03;6.47;;;5.93;;
18425;SDS011;9340;48.756;9.226;2023-05-20T11:00:30;7.25;;;6.65;;
18425;SDS011;9340;48.756;9.226;2023-05-20T11:02:58;5.93;;;5.47;;
18425;SDS011;9340;48.756;9.226;2023-05-20T11:05:26;5.97;;;5.57;;
18425;SDS011;9340;48.756;9.226;2023-05-20T11:07:59;6.40;;;5.80;;
18425;SDS011;9340;48.756;9.226;2023-05-20T11:10:27;6.05;;;5.65;;
18425;SDS011;9340;48.756;9.226;2023-05-20T11:12:54;5.72;;;5.22;;
18425;SDS011;9340;48.756;9.226;2023-05-20T11:15:21;5.97;;;5.50;;
18425;SDS011;9340;48.756;9.226;2023-05-20T11:17:52;5.50;;;5.10;;
18425;SDS011;9340;48.756;9.226;2023-05-20T11:20:20;4.95;;;4.50;;
18425;SDS011;9340;48.756;9.226;2023-05-20T11:22:48;6.80;;;5.43;;
18425;SDS011;9340;48.756;9.226;2023-05-20T11:25:15;5.78;;;4.95;;
18425;SDS011;9340;48.756;9.226;2023-05-20T11:27:42;5.90;;;5.40;;
18425;SDS011;9340;48.756;9.226;2023-05-20T11:30:09;5.05;;;4.50;;
18425;SDS011;9340;48.756;9.226;2023-05-20T11:32:40;5.80;;;5.30;;
18425;SDS011;9340;48.756;9.226;2023-05-20T11:35:07;5.13;;;4.78;;
18425;SDS011;9340;48.756;9.226;2023-05-20T11:37:45;5.05;;;4.75;;
18425;SDS011;9340;48.756;9.226;2023-05-20T11:40:22;5.25;;;4.68;;
18425;SDS011;9340;48.756;9.226;2023-05-20T11:42:51;4.70;;;4.40;;
18425;SDS011;9340;48.756;9.226;2023-05-20T11:45:19;5.22;;;4.82;;
18425;SDS011;9340;48.756;9.226;2023-05-20T11:47:45;5.35;;;4.85;;
18425;SDS011;9340;48.756;9.226;2023-05-20T11:50:15;5.00;;;4.70;;
18425;SDS011;9340;48.756;9.226;2023-05-20T11:52:46;5.70;;;5.20;;
18425;SDS011;9340;48.756;9.226;2023-05-20T11:55:21;5.35;;;4.85;;
18425;SDS011;9340;48.756;9.226;2023-05-20T11:57:49;5.18;;;4.68;;
18425;SDS011;9340;48.756;9.226;2023-05-20T12:00:16;4.82;;;4.43;;
18425;SDS011;9340;48.756;9.226;2023-05-20T12:02:42;5.82;;;5.22;;
18425;SDS011;9340;48.756;9.226;2023-05-20T12:05:09;5.47;;;5.07;;
18425;SDS011;9340;48.756;9.226;2023-05-20T12:07:37;5.30;;;4.90;;
18425;SDS011;9340;48.756;9.226;2023-05-20T12:10:06;4.60;;;4.30;;
18425;SDS011;9340;48.756;9.226;2023-05-20T12:12:34;4.72;;;4.38;;
18425;SDS011;9340;48.756;9.226;2023-05-20T12:15:01;4.85;;;4.47;;
18425;SDS011;9340;48.756;9.226;2023-05-20T12:17:28;5.25;;;4.85;;
18425;SDS011;9340;48.756;9.226;2023-05-20T12:19:54;4.57;;;4.28;;
18425;SDS011;9340;48.756;9.226;2023-05-20T12:22:21;4.63;;;4.15;;
18425;SDS011;9340;48.756;9.226;2023-05-20T12:24:48;4.72;;;4.32;;
18425;SDS011;9340;48.756;9.226;2023-05-20T12:27:16;4.82;;;4.43;;
18425;SDS011;9340;48.756;9.226;2023-05-20T12:29:43;4.43;;;4.13;;
18425;SDS011;9340;48.756;9.226;2023-05-20T12:32:10;6.13;;;4.95;;
18425;SDS011;9340;48.756;9.226;2023-05-20T12:34:36;5.03;;;4.63;;
18425;SDS011;9340;48.756;9.226;2023-05-20T12:37:03;4.22;;;3.95;;
18425;SDS011;9340;48.756;9.226;2023-05-20T12:39:30;4.97;;;4.57;;
18425;SDS011;9340;48.756;9.226;2023-05-20T12:41:57;5.18;;;4.57;;
18425;SDS011;9340;48.756;9.226;2023-05-20T12:44:25;4.30;;;4.00;;
18425;SDS011;9340;48.756;9.226;2023-05-20T12:46:53;5.00;;;4.60;;
18425;SDS011;9340;48.756;9.226;2023-05-20T12:49:20;4.78;;;4.28;;
18425;SDS011;9340;48.756;9.226;2023-05-20T12:51:46;4.72;;;4.32;;
18425;SDS011;9340;48.756;9.226;2023-05-20T12:54:13;4.57;;;4.28;;
18425;SDS011;9340;48.756;9.226;2023-05-20T12:56:40;4.50;;;4.20;;
18425;SDS011;9340;48.756;9.226;2023-05-20T12:59:11;4.95;;;4.40;;
18425;SDS011;9340;48.756;9.226;2023-05-20T13:01:39;4.88;;;4.47;;
18425;SDS011;9340;48.756;9.226;2023-05-20T13:04:06;4.63;;;4.32;;
18425;SDS011;9340;48.756;9.226;2023-05-20T13:06:32;4.65;;;4.35;;
18425;SDS011;9340;48.756;9.226;2023-05-20T13:08:59;4.90;;;4.50;;
18425;SDS011;9340;48.756;9.226;2023-05-20T13:11:26;4.93;;;4.50;;
18425;SDS011;9340;48.756;9.226;2023-05-20T13:13:53;4.95;;;4.43;;
18425;SDS011;9340;48.756;9.226;2023-05-20T13:16:20;4.85;;;4.45;;
18425;SDS011;9340;48.756;9.226;2023-05-20T13:18:48;4.97;;;4.57;;
18425;SDS011;9340;48.756;9.226;2023-05-20T13:21:15;4.85;;;4.55;;
18425;SDS011;9340;48.756;9.226;2023-05-20T13:23:42;5.32;;;4.82;;
18425;SDS011;9340;48.756;9.226;2023-05-20T13:26:08;5.43;;;4.97;;
18425;SDS011;9340;48.756;9.226;2023-05-20T13:28:35;4.72;;;4.40;;
18425;SDS011;9340;48.756;9.226;2023-05-20T13:31:03;5.05;;;4.72;;
18425;SDS011;9340;48.756;9.226;2023-05-20T13:33:31;5.07;;;4.70;;
18425;SDS011;9340;48.756;9.226;2023-05-20T13:35:59;4.57;;;4.28;;
18425;SDS011;9340;48.756;9.226;2023-05-20T13:38:26;4.43;;;4.03;;
18425;SDS011;9340;48.756;9.226;2023-05-20T13:40:52;5.45;;;4.93;;
18425;SDS011;9340;48.756;9.226;2023-05-20T13:43:23;5.22;;;4.85;;
18425;SDS011;9340;48.756;9.226;2023-05-20T13:45:49;4.78;;;4.38;;
18425;SDS011;9340;48.756;9.226;2023-05-20T13:48:16;4.97;;;4.45;;
18425;SDS011;9340;48.756;9.226;2023-05-20T13:50:43;5.22;;;4.72;;
18425;SDS011;9340;48.756;9.226;2023-05-20T13:53:11;4.60;;;4.20;;
18425;SDS011;9340;48.756;9.226;2023-05-20T13:55:37;4.40;;;4.10;;
18425;SDS011;9340;48.756;9.226;2023-05-20T13:58:05;4.18;;;3.85;;
18425;SDS011;9340;48.756;9.226;2023-05-20T14:00:33;4.50;;;4.20;;
18425;SDS011;9340;48.756;9.226;2023-05-20T14:03:00;5.50;;;4.97;;
18425;SDS011;9340;48.756;9.226;2023-05-20T14:05:28;5.30;;;4.80;;
18425;SDS011;9340;48.756;9.226;2023-05-20T14:07:55;4.88;;;4.50;;
18425;SDS011;9340;48.756;9.226;2023-05-20T14:10:23;4.68;;;4.22;;
18425;SDS011;9340;48.756;9.226;2023-05-20T14:12:51;5.10;;;4.63;;
18425;SDS011;9340;48.756;9.226;2023-05-20T14:15:18;5.60;;;5.13;;
18425;SDS011;9340;48.756;9.226;2023-05-20T14:17:46;5.80;;;5.30;;
18425;SDS011;9340;48.756;9.226;2023-05-20T14:20:13;6.00;;;5.15;;
18425;SDS011;9340;48.756;9.226;2023-05-20T14:22:40;4.65;;;4.30;;
18425;SDS011;9340;48.756;9.226;2023-05-20T14:25:07;4.97;;;4.57;;
18425;SDS011;9340;48.756;9.226;2023-05-20T14:27:35;5.50;;;4.07;;
18425;SDS011;9340;48.756;9.226;2023-05-20T14:30:02;5.03;;;4.13;;
18425;SDS011;9340;48.756;9.226;2023-05-20T14:32:29;4.38;;;4.07;;
18425;SDS011;9340;48.756;9.226;2023-05-20T14:34:56;4.75;;;4.18;;
18425;SDS011;9340;48.756;9.226;2023-05-20T14:37:22;4.85;;;4.35;;
18425;SDS011;9340;48.756;9.226;2023-05-20T14:39:50;4.72;;;4.22;;
18425;SDS011;9340;48.756;9.226;2023-05-20T14:42:16;4.20;;;3.83;;
18425;SDS011;9340;48.756;9.226;2023-05-20T14:44:44;4.20;;;3.90;;
18425;SDS011;9340;48.756;9.226;2023-05-20T14:47:11;5.28;;;4.80;;
18425;SDS011;9340;48.756;9.226;2023-05-20T14:49:40;4.93;;;4.63;;
18425;SDS011;9340;48.756;9.226;2023-05-20T14:52:08;5.18;;;4.78;;
18425;SDS011;9340;48.756;9.226;2023-05-20T14:54:35;5.72;;;4.60;;
18425;SDS011;9340;48.756;9.226;2023-05-20T14:57:02;5.13;;;4.68;;
18425;SDS011;9340;48.756;9.226;2023-05-20T14:59:30;4.40;;;4.10;;
18425;SDS011;9340;48.756;9.226;2023-05-20T15:01:58;4.57;;;4.28;;